Time,TemperatureF,DewpointF,PressureIn,WindDirection,WindDirectionDegrees,WindSpeedMPH,WindSpeedGustMPH,Humidity,HourlyPrecipIn,Conditions,Clouds,dailyrainin,SolarRadiationWatts/m^2,SoftwareType,DateUTC
2013-03-01 06:24:00,26.4,2.5,30.09,NNW,338,5.6,5.6,35,-99.99,,---,-99.99,0.00,VWS V14.01,2013-03-01 12:24:00,
2013-03-01 06:25:00,26.4,2.5,30.09,NNW,338,5.6,5.6,35,-99.99,,---,-99.99,0.00,VWS V14.01,2013-03-01 12:25:00,
2013-03-01 06:26:00,26.4,2.5,30.09,NNW,338,5.6,5.6,35,-99.99,,---,-99.99,0.00,VWS V14.01,2013-03-01 12:26:00,
2013-03-01 06:30:00,26.4,2.5,30.09,NNW,338,7.6,7.6,35,-99.99,,---,-99.99,0.00,VWS V14.01,2013-03-01 12:30:00,
2013-03-01 06:36:00,26.4,2.5,30.09,NNW,338,6.0,6.0,35,-99.99,,---,-99.99,0.00,VWS V14.01,2013-03-01 12:36:00,
2013-03-01 06:42:00,26.4,2.5,30.09,North,0,6.3,6.9,35,-99.99,,---,-99.99,0.00,VWS V14.01,2013-03-01 12:42:00,
2013-03-01 06:47:00,26.4,2.5,30.09,NNW,338,5.4,5.4,35,-99.99,,---,-99.99,0.00,VWS V14.01,2013-03-01 12:47:00,
2013-03-01 06:53:00,26.4,2.5,30.09,NNW,338,7.4,7.4,35,-99.99,,---,-99.99,0.00,VWS V14.01,2013-03-01 12:53:00,
2013-03-01 06:58:00,26.4,2.5,30.09,NNE,22,6.0,6.0,35,-99.99,,---,-99.99,0.00,VWS V14.01,2013-03-01 12:58:00,
2013-03-01 07:04:00,26.4,2.5,30.09,NNW,338,7.4,7.4,35,-99.99,,---,-99.99,0.00,VWS V14.01,2013-03-01 13:04:00,
2013-03-01 07:09:00,26.4,2.5,30.09,NNE,22,6.3,6.3,35,-99.99,,---,-99.99,0.00,VWS V14.01,2013-03-01 13:09:00,
2013-03-01 07:14:00,26.4,2.5,30.09,NNW,338,8.5,9.8,35,-99.99,,---,-99.99,0.00,VWS V14.01,2013-03-01 13:14:00,
2013-03-01 07:20:00,26.4,2.5,30.09,NNW,338,7.2,8.7,35,-99.99,,---,-99.99,0.00,VWS V14.01,2013-03-01 13:20:00,
2013-03-01 07:25:00,26.4,2.5,30.09,NNE,22,6.0,6.0,35,-99.99,,---,-99.99,0.00,VWS V14.01,2013-03-01 13:25:00,
2013-03-01 07:30:00,26.4,2.5,30.09,NNW,338,5.8,5.8,35,-99.99,,---,-99.99,0.00,VWS V14.01,2013-03-01 13:30:00,
2013-03-01 07:35:00,26.2,2.3,30.09,NNW,338,6.5,7.2,35,-99.99,,---,-99.99,0.00,VWS V14.01,2013-03-01 13:35:00,
2013-03-01 07:41:00,26.2,2.3,30.09,NNE,22,6.5,6.5,35,-99.99,,---,-99.99,0.00,VWS V14.01,2013-03-01 13:41:00,
2013-03-01 07:46:00,26.4,2.5,30.09,North,0,5.8,5.8,35,-99.99,,---,-99.99,0.00,VWS V14.01,2013-03-01 13:46:00,
2013-03-01 07:52:00,26.4,3.1,30.09,North,0,6.0,7.2,36,-99.99,,---,-99.99,0.00,VWS V14.01,2013-03-01 13:52:00,
2013-03-01 07:58:00,26.6,3.3,30.09,NNE,22,8.1,10.3,36,-99.99,,---,-99.99,0.00,VWS V14.01,2013-03-01 13:58:00,
2013-03-01 08:03:00,26.6,3.3,30.09,NNW,338,8.5,8.5,36,-99.99,,---,-99.99,0.00,VWS V14.01,2013-03-01 14:03:00,
2013-03-01 08:09:00,26.6,3.3,30.09,NNE,22,8.7,8.7,36,-99.99,,---,-99.99,0.00,VWS V14.01,2013-03-01 14:09:00,
2013-03-01 08:15:00,26.6,3.3,30.09,NNE,22,8.1,8.1,36,-99.99,,---,-99.99,0.00,VWS V14.01,2013-03-01 14:15:00,
2013-03-01 08:21:00,26.6,3.3,30.09,North,0,8.1,10.5,36,-99.99,,---,-99.99,0.00,VWS V14.01,2013-03-01 14:21:00,
2013-03-01 08:26:00,26.6,3.3,30.09,NW,315,9.0,9.0,36,-99.99,,---,-99.99,0.00,VWS V14.01,2013-03-01 14:26:00,
2013-03-01 08:31:00,26.6,3.3,30.09,NNE,22,7.2,7.2,36,-99.99,,---,-99.99,0.00,VWS V14.01,2013-03-01 14:31:00,
2013-03-01 08:37:00,26.4,3.7,30.12,NNW,338,11.0,11.0,37,-99.99,,---,-99.99,0.00,VWS V14.01,2013-03-01 14:37:00,
2013-03-01 08:42:00,26.4,3.7,30.12,NW,315,6.3,6.3,37,-99.99,,---,-99.99,0.00,VWS V14.01,2013-03-01 14:42:00,
2013-03-01 08:47:00,26.4,4.3,30.12,North,0,8.5,10.1,38,-99.99,,---,-99.99,0.00,VWS V14.01,2013-03-01 14:47:00,
2013-03-01 08:52:00,26.4,4.8,30.12,NNW,338,8.5,10.3,39,-99.99,,---,-99.99,0.00,VWS V14.01,2013-03-01 14:52:00,
2013-03-01 08:57:00,26.4,4.8,30.12,NNW,338,7.8,7.8,39,-99.99,,---,-99.99,0.00,VWS V14.01,2013-03-01 14:57:00,
2013-03-01 09:03:00,26.4,5.4,30.12,NNW,338,7.2,8.5,40,-99.99,,---,-99.99,0.00,VWS V14.01,2013-03-01 15:03:00,
2013-03-01 09:09:00,26.4,5.4,30.12,North,0,4.9,5.6,40,-99.99,,---,-99.99,0.00,VWS V14.01,2013-03-01 15:09:00,
2013-03-01 09:15:00,26.4,5.9,30.12,North,0,9.6,9.6,41,-99.99,,---,-99.99,0.00,VWS V14.01,2013-03-01 15:15:00,
2013-03-01 09:20:00,26.6,6.1,30.12,NNW,338,7.4,8.7,41,-99.99,,---,-99.99,0.00,VWS V14.01,2013-03-01 15:20:00,
2013-03-01 09:26:00,26.6,6.1,30.12,North,0,13.0,13.0,41,-99.99,,---,-99.99,0.00,VWS V14.01,2013-03-01 15:26:00,
2013-03-01 09:31:00,26.8,6.2,30.12,North,0,8.7,8.7,41,-99.99,,---,-99.99,0.00,VWS V14.01,2013-03-01 15:31:00,
2013-03-01 09:36:00,27.1,6.6,30.12,NNW,338,6.0,10.3,41,-99.99,,---,-99.99,0.00,VWS V14.01,2013-03-01 15:36:00,
2013-03-01 09:41:00,27.3,6.7,30.12,NNE,22,7.4,7.4,41,-99.99,,---,-99.99,0.00,VWS V14.01,2013-03-01 15:41:00,
2013-03-01 09:46:00,27.7,7.1,30.12,NNE,22,7.6,7.6,41,-99.99,,---,-99.99,0.00,VWS V14.01,2013-03-01 15:46:00,
2013-03-01 09:52:00,27.9,6.1,30.12,NNE,22,10.1,12.8,39,-99.99,,---,-99.99,0.00,VWS V14.01,2013-03-01 15:52:00,
2013-03-01 09:57:00,28.0,6.3,30.12,NNW,338,8.1,9.8,39,-99.99,,---,-99.99,0.00,VWS V14.01,2013-03-01 15:57:00,
2013-03-01 10:02:00,28.2,5.9,30.12,North,0,8.1,8.1,38,-99.99,,---,-99.99,0.00,VWS V14.01,2013-03-01 16:02:00,
2013-03-01 10:08:00,28.6,5.6,30.12,North,0,7.6,7.6,37,-99.99,,---,-99.99,0.00,VWS V14.01,2013-03-01 16:08:00,
2013-03-01 10:13:00,28.6,5.6,30.15,NNE,22,8.7,8.7,37,-99.99,,---,-99.99,0.00,VWS V14.01,2013-03-01 16:13:00,
2013-03-01 10:18:00,28.8,5.8,30.15,NW,315,8.5,8.5,37,-99.99,,---,-99.99,0.00,VWS V14.01,2013-03-01 16:18:00,
2013-03-01 10:24:00,29.3,5.7,30.15,North,0,8.1,9.6,36,-99.99,,---,-99.99,0.00,VWS V14.01,2013-03-01 16:24:00,
2013-03-01 10:29:00,29.1,4.9,30.15,North,0,8.5,11.2,35,-99.99,,---,-99.99,0.00,VWS V14.01,2013-03-01 16:29:00,
2013-03-01 10:35:00,29.1,4.9,30.15,NNW,338,9.0,9.0,35,-99.99,,---,-99.99,0.00,VWS V14.01,2013-03-01 16:35:00,
2013-03-01 10:40:00,28.9,4.7,30.15,NNE,22,8.5,13.2,35,-99.99,,---,-99.99,0.00,VWS V14.01,2013-03-01 16:40:00,
2013-03-01 10:45:00,29.1,4.9,30.15,NW,315,8.5,10.1,35,-99.99,,---,-99.99,0.00,VWS V14.01,2013-03-01 16:45:00,
2013-03-01 10:51:00,29.1,4.9,30.15,NNE,22,6.5,8.5,35,-99.99,,---,-99.99,0.00,VWS V14.01,2013-03-01 16:51:00,
2013-03-01 10:56:00,29.3,5.1,30.15,NNW,338,7.8,7.8,35,-99.99,,---,-99.99,0.00,VWS V14.01,2013-03-01 16:56:00,
2013-03-01 11:02:00,29.3,5.1,30.15,NW,315,10.7,12.1,35,-99.99,,---,-99.99,0.00,VWS V14.01,2013-03-01 17:02:00,
2013-03-01 11:07:00,29.1,4.3,30.15,NNW,338,6.0,10.7,34,-99.99,,---,-99.99,0.00,VWS V14.01,2013-03-01 17:07:00,
2013-03-01 11:12:00,29.1,4.3,30.15,North,0,12.8,12.8,34,-99.99,,---,-99.99,0.00,VWS V14.01,2013-03-01 17:12:00,
2013-03-01 11:17:00,29.3,4.4,30.15,NNE,22,8.1,8.1,34,-99.99,,---,-99.99,0.00,VWS V14.01,2013-03-01 17:17:00,
2013-03-01 11:23:00,29.5,4.6,30.15,NNE,22,10.1,10.1,34,-99.99,,---,-99.99,0.00,VWS V14.01,2013-03-01 17:23:00,
2013-03-01 11:28:00,29.5,4.6,30.15,NNE,22,6.0,9.0,34,-99.99,,---,-99.99,0.00,VWS V14.01,2013-03-01 17:28:00,
2013-03-01 11:34:00,29.8,4.2,30.15,NNW,338,11.0,11.0,33,-99.99,,---,-99.99,0.00,VWS V14.01,2013-03-01 17:34:00,
2013-03-01 11:39:00,30.2,5.2,30.15,NNW,338,10.7,11.0,34,-99.99,,---,-99.99,0.00,VWS V14.01,2013-03-01 17:39:00,
2013-03-01 11:45:00,30.2,3.9,30.15,NNW,338,7.8,8.7,32,-99.99,,---,-99.99,0.00,VWS V14.01,2013-03-01 17:45:00,
2013-03-01 11:51:00,30.6,4.2,30.15,NNW,338,8.7,8.7,32,-99.99,,---,-99.99,0.00,VWS V14.01,2013-03-01 17:51:00,
2013-03-01 11:56:00,30.9,4.5,30.15,NNE,22,10.1,10.1,32,-99.99,,---,-99.99,0.00,VWS V14.01,2013-03-01 17:56:00,
2013-03-01 12:02:00,30.7,3.7,30.15,NNW,338,6.0,8.5,31,-99.99,,---,-99.99,0.00,VWS V14.01,2013-03-01 18:02:00,
2013-03-01 12:07:00,30.9,3.8,30.12,North,0,8.5,10.5,31,-99.99,,---,-99.99,0.00,VWS V14.01,2013-03-01 18:07:00,
2013-03-01 12:12:00,30.9,3.8,30.12,NNE,22,9.4,9.4,31,-99.99,,---,-99.99,0.00,VWS V14.01,2013-03-01 18:12:00,
2013-03-01 12:18:00,30.9,3.8,30.12,NNE,22,8.5,8.5,31,-99.99,,---,-99.99,0.00,VWS V14.01,2013-03-01 18:18:00,
2013-03-01 12:23:00,30.6,3.5,30.12,NNW,338,6.0,6.0,31,-99.99,,---,-99.99,0.00,VWS V14.01,2013-03-01 18:23:00,
2013-03-01 12:29:00,30.7,3.7,30.12,NNW,338,11.0,11.0,31,-99.99,,---,-99.99,0.00,VWS V14.01,2013-03-01 18:29:00,
2013-03-01 12:35:00,31.1,4.0,30.12,NNE,22,7.6,9.8,31,-99.99,,---,-99.99,0.00,VWS V14.01,2013-03-01 18:35:00,
2013-03-01 12:40:00,30.9,3.8,30.15,North,0,8.5,8.5,31,-99.99,,---,-99.99,0.00,VWS V14.01,2013-03-01 18:40:00,
2013-03-01 12:45:00,30.7,3.0,30.15,NNW,338,8.5,8.7,30,-99.99,,---,-99.99,0.00,VWS V14.01,2013-03-01 18:45:00,
2013-03-01 12:51:00,30.9,3.8,30.15,NW,315,7.8,7.8,31,-99.99,,---,-99.99,0.00,VWS V14.01,2013-03-01 18:51:00,
2013-03-01 12:57:00,30.7,3.0,30.15,North,0,7.6,9.8,30,-99.99,,---,-99.99,0.00,VWS V14.01,2013-03-01 18:57:00,
2013-03-01 13:03:00,30.7,3.0,30.15,NNW,338,7.8,8.5,30,-99.99,,---,-99.99,0.00,VWS V14.01,2013-03-01 19:03:00,
2013-03-01 13:08:00,30.6,2.8,30.15,North,0,10.7,10.7,30,-99.99,,---,-99.99,0.00,VWS V14.01,2013-03-01 19:08:00,
2013-03-01 13:14:00,30.9,3.1,30.15,NNW,338,7.8,7.8,30,-99.99,,---,-99.99,0.00,VWS V14.01,2013-03-01 19:14:00,
2013-03-01 13:19:00,31.1,3.3,30.15,NNE,22,7.2,7.2,30,-99.99,,---,-99.99,0.00,VWS V14.01,2013-03-01 19:19:00,
2013-03-01 13:24:00,31.1,3.3,30.15,NNE,22,10.5,10.5,30,-99.99,,---,-99.99,0.00,VWS V14.01,2013-03-01 19:24:00,
2013-03-01 13:31:00,30.9,3.1,30.15,North,0,7.8,7.8,30,-99.99,,---,-99.99,0.00,VWS V14.01,2013-03-01 19:31:00,
2013-03-01 13:37:00,30.9,3.1,30.15,NNE,22,7.4,8.7,30,-99.99,,---,-99.99,0.00,VWS V14.01,2013-03-01 19:37:00,
2013-03-01 13:42:00,30.9,3.1,30.15,NNW,338,5.6,6.0,30,-99.99,,---,-99.99,0.00,VWS V14.01,2013-03-01 19:42:00,
2013-03-01 13:47:00,31.1,3.3,30.15,NNE,22,6.9,6.9,30,-99.99,,---,-99.99,0.00,VWS V14.01,2013-03-01 19:47:00,
2013-03-01 13:53:00,31.1,3.3,30.15,NNE,22,8.5,8.5,30,-99.99,,---,-99.99,0.00,VWS V14.01,2013-03-01 19:53:00,
2013-03-01 13:59:00,31.1,3.3,30.15,NNW,338,7.8,9.0,30,-99.99,,---,-99.99,0.00,VWS V14.01,2013-03-01 19:59:00,
2013-03-01 14:04:00,30.9,1.7,30.15,NNW,338,8.7,8.7,28,-99.99,,---,-99.99,0.00,VWS V14.01,2013-03-01 20:04:00,
2013-03-01 14:10:00,31.1,1.8,30.15,NNW,338,7.6,9.8,28,-99.99,,---,-99.99,0.00,VWS V14.01,2013-03-01 20:10:00,
2013-03-01 14:15:00,31.1,1.8,30.15,NE,45,8.5,8.5,28,-99.99,,---,-99.99,0.00,VWS V14.01,2013-03-01 20:15:00,
2013-03-01 14:20:00,31.3,2.0,30.15,North,0,8.7,8.7,28,-99.99,,---,-99.99,0.00,VWS V14.01,2013-03-01 20:20:00,
2013-03-01 14:26:00,31.3,2.0,30.15,NNE,22,10.5,10.5,28,-99.99,,---,-99.99,0.00,VWS V14.01,2013-03-01 20:26:00,
2013-03-01 14:32:00,31.6,-0.1,30.15,NNE,22,11.2,11.2,25,-99.99,,---,-99.99,0.00,VWS V14.01,2013-03-01 20:32:00,
2013-03-01 14:38:00,32.0,0.2,30.15,NNW,338,7.4,12.5,25,-99.99,,---,-99.99,0.00,VWS V14.01,2013-03-01 20:38:00,
2013-03-01 14:44:00,32.0,0.2,30.15,NNW,338,7.8,7.8,25,-99.99,,---,-99.99,0.00,VWS V14.01,2013-03-01 20:44:00,
2013-03-01 14:49:00,32.0,0.2,30.15,NNW,338,9.4,9.4,25,-99.99,,---,-99.99,0.00,VWS V14.01,2013-03-01 20:49:00,
2013-03-01 14:55:00,31.8,0.0,30.15,North,0,12.3,12.3,25,-99.99,,---,-99.99,0.00,VWS V14.01,2013-03-01 20:55:00,
2013-03-01 15:01:00,31.6,-0.1,30.15,North,0,8.1,8.7,25,-99.99,,---,-99.99,0.00,VWS V14.01,2013-03-01 21:01:00,
2013-03-01 15:07:00,31.5,-0.3,30.15,NNW,338,10.7,10.7,25,-99.99,,---,-99.99,0.00,VWS V14.01,2013-03-01 21:07:00,
2013-03-01 15:13:00,31.5,-0.3,30.15,NNW,338,8.1,8.7,25,-99.99,,---,-99.99,0.00,VWS V14.01,2013-03-01 21:13:00,
2013-03-01 15:19:00,31.5,-0.3,30.15,NNE,22,8.1,10.5,25,-99.99,,---,-99.99,0.00,VWS V14.01,2013-03-01 21:19:00,
2013-03-01 15:25:00,31.5,-0.3,30.15,North,0,10.1,10.1,25,-99.99,,---,-99.99,0.00,VWS V14.01,2013-03-01 21:25:00,
2013-03-01 15:31:00,31.5,-0.3,30.15,NW,315,6.0,7.4,25,-99.99,,---,-99.99,0.00,VWS V14.01,2013-03-01 21:31:00,
2013-03-01 15:37:00,31.5,-0.3,30.15,North,0,10.1,10.1,25,-99.99,,---,-99.99,0.00,VWS V14.01,2013-03-01 21:37:00,
2013-03-01 15:43:00,31.5,-0.3,30.15,NNE,22,11.9,11.9,25,-99.99,,---,-99.99,0.00,VWS V14.01,2013-03-01 21:43:00,
2013-03-01 15:49:00,31.5,-0.3,30.15,NNE,22,9.0,9.0,25,-99.99,,---,-99.99,0.00,VWS V14.01,2013-03-01 21:49:00,
2013-03-01 15:56:00,30.4,-1.2,30.15,NNW,338,10.3,10.3,25,-99.99,,---,-99.99,0.00,VWS V14.01,2013-03-01 21:56:00,
2013-03-01 16:02:00,30.4,-1.2,30.15,NNE,22,17.9,17.9,25,-99.99,,---,-99.99,0.00,VWS V14.01,2013-03-01 22:02:00,
2013-03-01 16:07:00,30.2,-1.4,30.15,NNW,338,6.5,17.9,25,-99.99,,---,-99.99,0.00,VWS V14.01,2013-03-01 22:07:00,
2013-03-01 16:12:00,30.2,-1.4,30.15,North,0,5.8,6.3,25,-99.99,,---,-99.99,0.00,VWS V14.01,2013-03-01 22:12:00,
2013-03-01 16:18:00,30.2,-1.4,30.15,NNE,22,7.6,7.6,25,-99.99,,---,-99.99,0.00,VWS V14.01,2013-03-01 22:18:00,
2013-03-01 16:24:00,30.0,-1.5,30.15,NNW,338,9.2,9.2,25,-99.99,,---,-99.99,0.00,VWS V14.01,2013-03-01 22:24:00,
2013-03-01 16:30:00,29.8,-1.7,30.15,NNE,22,9.0,9.8,25,-99.99,,---,-99.99,0.00,VWS V14.01,2013-03-01 22:30:00,
2013-03-01 16:35:00,29.7,-1.8,30.15,North,0,7.8,10.5,25,-99.99,,---,-99.99,0.00,VWS V14.01,2013-03-01 22:35:00,
2013-03-01 16:41:00,29.5,-2.0,30.15,North,0,9.8,10.5,25,-99.99,,---,-99.99,0.00,VWS V14.01,2013-03-01 22:41:00,
2013-03-01 16:47:00,29.5,0.4,30.15,NNE,22,7.4,9.6,28,-99.99,,---,-99.99,0.00,VWS V14.01,2013-03-01 22:47:00,
2013-03-01 16:53:00,29.5,0.4,30.15,NNW,338,6.5,6.5,28,-99.99,,---,-99.99,0.00,VWS V14.01,2013-03-01 22:53:00,
2013-03-01 16:59:00,29.5,0.4,30.15,NNE,22,4.3,4.3,28,-99.99,,---,-99.99,0.00,VWS V14.01,2013-03-01 22:59:00,
2013-03-01 17:04:00,29.3,0.2,30.15,NNE,22,4.3,4.3,28,-99.99,,---,-99.99,0.00,VWS V14.01,2013-03-01 23:04:00,
2013-03-01 17:09:00,29.3,1.7,30.15,North,0,8.1,8.1,30,-99.99,,---,-99.99,0.00,VWS V14.01,2013-03-01 23:09:00,
2013-03-01 17:16:00,29.1,1.6,30.15,NNW,338,7.6,7.6,30,-99.99,,---,-99.99,0.00,VWS V14.01,2013-03-01 23:16:00,